Time;durP1;ratioP1;P1;durP2;ratioP2;P2;SDS_P1;SDS_P2;PMS_P1;PMS_P2;Temp;Humidity;BMP_temperature;BMP_pressure;BME280_temperature;BME280_humidity;BME280_pressure;Samples;Min_cycle;Max_cycle;Signal;HPM_P1;HPM_P2
2023/05/19 00:02:14;;;;;;;;;;;;;;;12.39;nan;101125.25;4987903;28;19918;-85
2023/05/19 00:04:39;;;;;;;;;;;;;;;12.46;nan;101121.03;4987737;28;19914;-88
2023/05/19 00:07:07;;;;;;;;;;;;;;;12.38;nan;101120.94;4976708;28;19921;-85
2023/05/19 00:09:32;;;;;;;;;;;;;;;12.32;nan;101117.09;4968066;28;19918;-86
2023/05/19 00:11:57;;;;;;;;;;;;;;;12.44;nan;101115.06;4968262;28;19920;-84
2023/05/19 00:14:23;;;;;;;;;;;;;;;12.42;nan;101109.06;4976061;28;19918;-86
2023/05/19 00:16:48;;;;;;;;;;;;;;;12.33;nan;101116.09;4978692;28;19914;-87
2023/05/19 00:19:15;;;;;;;;;;;;;;;12.29;nan;101117.34;4990646;28;20414;-87
2023/05/19 00:21:40;;;;;;;;;;;;;;;12.35;nan;101128.34;4985285;28;19924;-87
2023/05/19 00:24:06;;;;;;;;;;;;;;;12.31;nan;101122.53;4969151;28;19914;-88
2023/05/19 00:26:31;;;;;;;;;;;;;;;12.36;nan;101120.25;4973979;28;20516;-88
2023/05/19 00:28:56;;;;;;;;;;;;;;;12.31;nan;101109.25;4984536;28;19913;-87
2023/05/19 00:31:21;;;;;;;;;;;;;;;12.26;nan;101115.00;4984755;28;19913;-85
2023/05/19 00:33:46;;;;;;;;;;;;;;;12.20;nan;101115.59;4992809;28;19945;-85
2023/05/19 00:36:12;;;;;;;;;;;;;;;12.17;nan;101115.91;4983876;28;19917;-84
2023/05/19 00:38:37;;;;;;;;;;;;;;;12.06;nan;101110.78;4977609;28;19914;-86
2023/05/19 00:41:04;;;;;;;;;;;;;;;12.02;nan;101114.72;4985146;28;19965;-87
2023/05/19 00:43:30;;;;;;;;;;;;;;;11.97;nan;101123.13;4964633;28;19929;-86
2023/05/19 00:45:55;;;;;;;;;;;;;;;11.99;nan;101120.31;4988468;28;19920;-88
2023/05/19 00:48:21;;;;;;;;;;;;;;;11.90;nan;101120.22;4968762;28;19925;-87
2023/05/19 00:50:46;;;;;;;;;;;;;;;11.94;nan;101123.41;4968457;28;19918;-88
2023/05/19 00:53:13;;;;;;;;;;;;;;;11.87;nan;101114.38;4976651;28;19924;-87
2023/05/19 00:55:39;;;;;;;;;;;;;;;11.97;nan;101111.69;4974595;28;19918;-87
2023/05/19 00:58:04;;;;;;;;;;;;;;;11.84;nan;101112.78;4987614;28;20374;-86
2023/05/19 01:00:30;;;;;;;;;;;;;;;11.84;nan;101107.50;4964977;28;19926;-86
2023/05/19 01:02:55;;;;;;;;;;;;;;;11.86;nan;101107.38;4983148;28;19921;-88
2023/05/19 01:05:21;;;;;;;;;;;;;;;11.83;nan;101111.16;4967504;28;20307;-86
2023/05/19 01:07:46;;;;;;;;;;;;;;;11.82;nan;101105.97;4971249;28;20356;-86
2023/05/19 01:10:11;;;;;;;;;;;;;;;11.80;nan;101100.00;4975267;28;19914;-86
2023/05/19 01:12:37;;;;;;;;;;;;;;;11.83;nan;101108.50;4975724;28;20004;-87
2023/05/19 01:15:04;;;;;;;;;;;;;;;11.80;nan;101100.00;4964818;28;19918;-87
2023/05/19 01:17:35;;;;;;;;;;;;;;;11.83;nan;101099.72;4958478;28;20375;-87
2023/05/19 01:20:21;;;;;;;;;;;;;;;11.76;nan;101102.09;4972109;28;19922;-88
2023/05/19 01:22:47;;;;;;;;;;;;;;;11.69;nan;101090.41;4984374;28;20306;-87
2023/05/19 01:25:16;;;;;;;;;;;;;;;11.67;nan;101098.50;4978397;28;19918;-87
2023/05/19 01:27:50;;;;;;;;;;;;;;;11.66;nan;101090.72;4977446;28;19921;-87
2023/05/19 01:30:36;;;;;;;;;;;;;;;11.60;nan;101091.28;4971034;28;20302;-87
2023/05/19 01:33:03;;;;;;;;;;;;;;;11.75;nan;101102.25;4991442;28;19914;-88
2023/05/19 01:35:29;;;;;;;;;;;;;;;11.65;nan;101087.22;4979781;28;19922;-86
2023/05/19 01:37:56;;;;;;;;;;;;;;;11.58;nan;101086.13;4970228;28;19918;-86
2023/05/19 01:40:22;;;;;;;;;;;;;;;11.57;nan;101094.22;4974712;28;19921;-87
2023/05/19 01:42:48;;;;;;;;;;;;;;;11.62;nan;101100.75;4963153;28;19914;-89
2023/05/19 01:45:13;;;;;;;;;;;;;;;11.63;nan;101091.84;4968795;28;19933;-87
2023/05/19 01:47:39;;;;;;;;;;;;;;;11.65;nan;101091.69;4975519;28;20502;-86
2023/05/19 01:50:05;;;;;;;;;;;;;;;11.51;nan;101086.84;4986606;28;19940;-85
2023/05/19 01:52:30;;;;;;;;;;;;;;;11.53;nan;101098.13;4976961;28;20433;-86
2023/05/19 01:54:55;;;;;;;;;;;;;;;11.53;nan;101095.50;4980966;28;20291;-85
2023/05/19 01:57:34;;;;;;;;;;;;;;;11.45;nan;101096.22;4988065;28;19928;-85
2023/05/19 02:00:08;;;;;;;;;;;;;;;11.44;nan;101097.16;4967325;28;19925;-86
2023/05/19 02:02:53;;;;;;;;;;;;;;;11.41;nan;101100.13;4983777;28;19977;-85
2023/05/19 02:05:28;;;;;;;;;;;;;;;11.33;nan;101107.94;4980965;28;19986;-86
2023/05/19 02:08:01;;;;;;;;;;;;;;;11.41;nan;101110.72;4962895;28;19914;-87
2023/05/19 02:10:29;;;;;;;;;;;;;;;11.34;nan;101106.97;4959123;28;20438;-86
2023/05/19 02:12:57;;;;;;;;;;;;;;;11.33;nan;101108.78;4972590;28;20462;-87
2023/05/19 02:15:28;;;;;;;;;;;;;;;11.24;nan;101107.81;4957308;28;20034;-86
2023/05/19 02:17:54;;;;;;;;;;;;;;;11.21;nan;101109.91;4981843;28;19913;-86
2023/05/19 02:20:21;;;;;;;;;;;;;;;11.33;nan;101103.47;4987551;28;19917;-87
2023/05/19 02:22:46;;;;;;;;;;;;;;;11.22;nan;101108.94;4976686;28;19914;-85
2023/05/19 02:25:12;;;;;;;;;;;;;;;11.19;nan;101110.06;4965864;28;19918;-84
2023/05/19 02:27:37;;;;;;;;;;;;;;;11.25;nan;101116.59;4972257;28;19957;-87
2023/05/19 02:30:03;;;;;;;;;;;;;;;11.17;nan;101116.47;4971039;28;19988;-86
2023/05/19 02:32:28;;;;;;;;;;;;;;;11.15;nan;101106.00;4981100;28;20008;-86
2023/05/19 02:34:55;;;;;;;;;;;;;;;11.12;nan;101108.13;4979529;28;19918;-86
2023/05/19 02:37:22;;;;;;;;;;;;;;;11.09;nan;101113.69;4970705;28;19924;-87
2023/05/19 02:39:48;;;;;;;;;;;;;;;10.95;nan;101110.50;4984302;28;19914;-89
2023/05/19 02:42:16;;;;;;;;;;;;;;;11.03;nan;101115.06;4971243;28;19918;-86
2023/05/19 02:44:41;;;;;;;;;;;;;;;10.96;nan;101108.66;4966158;28;19928;-86
2023/05/19 02:47:06;;;;;;;;;;;;;;;10.89;nan;101104.91;4988087;28;19918;-86
2023/05/19 02:49:34;;;;;;;;;;;;;;;10.86;nan;101100.75;4984404;28;19995;-86
2023/05/19 02:52:00;;;;;;;;;;;;;;;10.87;nan;101107.72;4985940;28;19926;-86
2023/05/19 02:54:25;;;;;;;;;;;;;;;10.72;nan;101112.56;4971841;28;19926;-86
2023/05/19 02:56:50;;;;;;;;;;;;;;;10.63;nan;101108.13;4969627;28;19973;-86
2023/05/19 02:59:15;;;;;;;;;;;;;;;10.52;nan;101108.25;4969580;28;19913;-86
2023/05/19 03:01:40;;;;;;;;;;;;;;;10.55;nan;101105.31;4983656;28;19921;-87
2023/05/19 03:04:05;;;;;;;;;;;;;;;10.53;nan;101109.91;4969316;28;19961;-87
2023/05/19 03:06:31;;;;;;;;;;;;;;;10.46;nan;101109.59;4978827;28;19925;-86
2023/05/19 03:08:56;;;;;;;;;;;;;;;10.40;nan;101110.19;4965250;28;19914;-88
2023/05/19 03:11:22;;;;;;;;;;;;;;;10.38;nan;101107.66;4961936;28;19917;-86
2023/05/19 03:13:47;;;;;;;;;;;;;;;10.33;nan;101107.22;4966950;28;19913;-84
2023/05/19 03:16:12;;;;;;;;;;;;;;;10.25;nan;101106.19;4979405;28;19914;-85
2023/05/19 03:18:37;;;;;;;;;;;;;;;10.25;nan;101100.91;4981952;28;20004;-85
2023/05/19 03:21:03;;;;;;;;;;;;;;;10.14;nan;101108.00;4969409;28;19953;-84
2023/05/19 03:23:28;;;;;;;;;;;;;;;10.15;nan;101100.88;4973630;28;19918;-84
2023/05/19 03:25:54;;;;;;;;;;;;;;;10.14;nan;101109.81;4983704;28;19914;-84
2023/05/19 03:28:20;;;;;;;;;;;;;;;10.12;nan;101106.44;4982860;28;19917;-85
2023/05/19 03:30:45;;;;;;;;;;;;;;;10.07;nan;101112.13;4983894;28;19914;-84
2023/05/19 03:33:10;;;;;;;;;;;;;;;10.09;nan;101102.28;4985087;28;20595;-84
2023/05/19 03:35:35;;;;;;;;;;;;;;;10.09;nan;101101.44;4980148;28;19929;-84
2023/05/19 03:38:01;;;;;;;;;;;;;;;10.09;nan;101107.56;4980086;28;19988;-84
2023/05/19 03:40:26;;;;;;;;;;;;;;;10.04;nan;101109.78;4988811;28;19997;-84
2023/05/19 03:42:53;;;;;;;;;;;;;;;9.95;nan;101100.00;4971858;28;19925;-84
2023/05/19 03:45:18;;;;;;;;;;;;;;;10.00;nan;101111.00;4970504;28;19928;-86
2023/05/19 03:47:43;;;;;;;;;;;;;;;10.00;nan;101114.47;4976948;28;19918;-87
2023/05/19 03:50:09;;;;;;;;;;;;;;;10.02;nan;101110.88;4976900;28;20395;-87
2023/05/19 03:52:35;;;;;;;;;;;;;;;10.02;nan;101118.81;4960719;28;19917;-86
2023/05/19 03:55:00;;;;;;;;;;;;;;;9.98;nan;101126.16;4964780;28;19967;-87
2023/05/19 03:57:25;;;;;;;;;;;;;;;9.99;nan;101123.38;4971503;28;19924;-86
2023/05/19 03:59:51;;;;;;;;;;;;;;;9.95;nan;101124.59;4979921;28;19925;-86
2023/05/19 04:02:16;;;;;;;;;;;;;;;9.94;nan;101130.88;4987551;28;19922;-86
2023/05/19 04:04:41;;;;;;;;;;;;;;;9.92;nan;101137.25;4982284;28;19921;-86
2023/05/19 04:07:06;;;;;;;;;;;;;;;9.93;nan;101131.81;4971651;28;19937;-86
2023/05/19 04:09:34;;;;;;;;;;;;;;;9.95;nan;101126.41;4983722;28;19923;-85
2023/05/19 04:12:00;;;;;;;;;;;;;;;9.95;nan;101134.34;4971355;28;20534;-86
2023/05/19 04:14:25;;;;;;;;;;;;;;;9.97;nan;101122.66;4968716;28;19925;-86
2023/05/19 04:16:51;;;;;;;;;;;;;;;9.97;nan;101121.84;4971955;28;20553;-85
2023/05/19 04:19:16;;;;;;;;;;;;;;;10.02;nan;101127.56;4972350;28;20494;-86
2023/05/19 04:21:41;;;;;;;;;;;;;;;10.00;nan;101130.31;4972581;28;19914;-86
2023/05/19 04:24:06;;;;;;;;;;;;;;;10.05;nan;101137.84;4979686;28;19922;-86
2023/05/19 04:26:33;;;;;;;;;;;;;;;10.12;nan;101135.53;4971725;28;19996;-86
2023/05/19 04:28:58;;;;;;;;;;;;;;;10.13;nan;101139.81;4978804;28;19918;-85
2023/05/19 04:31:23;;;;;;;;;;;;;;;10.18;nan;101135.81;4968527;28;19921;-84
2023/05/19 04:33:48;;;;;;;;;;;;;;;10.25;nan;101148.50;4972801;28;19969;-85
2023/05/19 04:36:16;;;;;;;;;;;;;;;10.31;nan;101142.72;4972351;28;19915;-84
2023/05/19 04:38:41;;;;;;;;;;;;;;;10.36;nan;101136.03;4991864;28;20381;-86
2023/05/19 04:41:09;;;;;;;;;;;;;;;10.38;nan;101143.84;4991609;28;20008;-86
2023/05/19 04:43:35;;;;;;;;;;;;;;;10.41;nan;101148.84;4973290;28;19925;-87
2023/05/19 04:46:00;;;;;;;;;;;;;;;10.45;nan;101141.50;4968556;28;19918;-84
2023/05/19 04:48:26;;;;;;;;;;;;;;;10.43;nan;101151.38;4985981;28;19917;-85
2023/05/19 04:50:51;;;;;;;;;;;;;;;10.40;nan;101150.66;4984202;28;20000;-84
2023/05/19 04:53:17;;;;;;;;;;;;;;;10.44;nan;101150.38;4975021;28;19918;-86
2023/05/19 04:55:42;;;;;;;;;;;;;;;10.51;nan;101146.22;4971787;28;19918;-87
2023/05/19 04:58:08;;;;;;;;;;;;;;;10.56;nan;101149.31;4971841;28;19925;-86
2023/05/19 05:00:34;;;;;;;;;;;;;;;10.58;nan;101156.16;4970834;28;19914;-86
2023/05/19 05:03:03;;;;;;;;;;;;;;;10.65;nan;101153.75;4975681;28;19921;-86
2023/05/19 05:05:29;;;;;;;;;;;;;;;10.78;nan;101156.16;4970603;28;20430;-86
2023/05/19 05:07:55;;;;;;;;;;;;;;;10.89;nan;101160.47;4986295;28;19914;-86
2023/05/19 05:10:20;;;;;;;;;;;;;;;11.08;nan;101157.00;4965444;28;19925;-86
2023/05/19 05:12:46;;;;;;;;;;;;;;;11.27;nan;101157.84;4960763;28;20458;-87
2023/05/19 05:15:11;;;;;;;;;;;;;;;11.42;nan;101160.06;4971198;28;19917;-86
2023/05/19 05:17:36;;;;;;;;;;;;;;;11.61;nan;101160.03;4987758;28;19941;-86
2023/05/19 05:20:03;;;;;;;;;;;;;;;11.74;nan;101158.88;4966873;28;19967;-87
2023/05/19 05:22:28;;;;;;;;;;;;;;;11.92;nan;101157.19;4973094;28;19926;-87
2023/05/19 05:24:54;;;;;;;;;;;;;;;12.07;nan;101161.00;4969535;28;19918;-89
2023/05/19 05:27:19;;;;;;;;;;;;;;;12.16;nan;101161.13;4971461;28;19928;-86
2023/05/19 05:29:44;;;;;;;;;;;;;;;12.28;nan;101163.44;4973823;28;20371;-87
2023/05/19 05:32:09;;;;;;;;;;;;;;;12.37;nan;101156.41;4977525;28;19941;-86
2023/05/19 05:34:36;;;;;;;;;;;;;;;12.52;nan;101154.91;4973641;28;19920;-87
2023/05/19 05:37:02;;;;;;;;;;;;;;;12.73;nan;101162.63;4971761;28;19924;-87
2023/05/19 05:39:27;;;;;;;;;;;;;;;13.07;nan;101156.63;4975736;28;19926;-87
2023/05/19 05:41:52;;;;;;;;;;;;;;;13.47;nan;101157.16;4973850;28;19914;-88
2023/05/19 05:44:18;;;;;;;;;;;;;;;13.83;nan;101147.25;4972982;28;19922;-87
2023/05/19 05:46:43;;;;;;;;;;;;;;;13.84;nan;101143.56;4989466;28;20367;-87
2023/05/19 05:49:08;;;;;;;;;;;;;;;13.85;nan;101141.75;4971314;28;19921;-86
2023/05/19 05:51:34;;;;;;;;;;;;;;;13.76;nan;101147.03;4964414;28;19918;-85
2023/05/19 05:54:00;;;;;;;;;;;;;;;13.89;nan;101140.44;4988748;28;19922;-86
2023/05/19 05:56:26;;;;;;;;;;;;;;;13.80;nan;101145.72;4982046;28;19969;-85
2023/05/19 05:58:52;;;;;;;;;;;;;;;13.96;nan;101144.13;4970265;28;20342;-85
2023/05/19 06:01:17;;;;;;;;;;;;;;;14.06;nan;101141.34;4989231;28;19921;-86
2023/05/19 06:03:45;;;;;;;;;;;;;;;14.13;nan;101140.56;4974236;28;19941;-86
2023/05/19 06:06:12;;;;;;;;;;;;;;;14.33;nan;101138.47;4969786;28;20000;-87
2023/05/19 06:08:37;;;;;;;;;;;;;;;14.55;nan;101139.72;4972349;28;20404;-86
2023/05/19 06:11:07;;;;;;;;;;;;;;;14.89;nan;101140.63;4973874;28;19918;-87
2023/05/19 06:13:37;;;;;;;;;;;;;;;15.44;nan;101138.09;4979162;28;19997;-85
2023/05/19 06:16:02;;;;;;;;;;;;;;;15.89;nan;101136.72;4962443;28;19914;-87
2023/05/19 06:18:27;;;;;;;;;;;;;;;16.20;nan;101135.94;4975633;28;19921;-85
2023/05/19 06:20:53;;;;;;;;;;;;;;;16.57;nan;101142.41;4990038;28;19924;-88
2023/05/19 06:23:18;;;;;;;;;;;;;;;16.45;nan;101143.84;4965629;28;19981;-87
2023/05/19 06:25:43;;;;;;;;;;;;;;;16.56;nan;101140.75;4967269;28;19997;-89
2023/05/19 06:28:08;;;;;;;;;;;;;;;16.76;nan;101136.63;4989487;28;20379;-88
2023/05/19 06:30:35;;;;;;;;;;;;;;;17.22;nan;101140.31;4970846;28;19914;-88
2023/05/19 06:33:02;;;;;;;;;;;;;;;17.29;nan;101138.59;4961660;28;19921;-89
2023/05/19 06:35:27;;;;;;;;;;;;;;;17.47;nan;101141.75;4972956;28;19914;-88
2023/05/19 06:37:52;;;;;;;;;;;;;;;17.82;nan;101144.75;4969860;28;20005;-88
2023/05/19 06:40:19;;;;;;;;;;;;;;;17.70;nan;101138.19;4979490;28;19918;-88
2023/05/19 06:42:44;;;;;;;;;;;;;;;17.99;nan;101143.53;4992560;28;19924;-88
2023/05/19 06:45:10;;;;;;;;;;;;;;;18.30;nan;101139.81;4974196;28;19922;-87
2023/05/19 06:47:35;;;;;;;;;;;;;;;18.53;nan;101144.22;4987438;28;19964;-89
2023/05/19 06:50:00;;;;;;;;;;;;;;;18.89;nan;101134.31;4975342;28;19917;-88
2023/05/19 06:52:26;;;;;;;;;;;;;;;18.96;nan;101129.03;4959426;28;19991;-88
2023/05/19 06:54:51;;;;;;;;;;;;;;;18.50;nan;101140.06;4987609;28;19921;-88
2023/05/19 06:57:16;;;;;;;;;;;;;;;18.30;nan;101134.47;4991617;28;19976;-88
2023/05/19 06:59:42;;;;;;;;;;;;;;;18.55;nan;101136.81;4984231;28;19921;-89
2023/05/19 07:02:07;;;;;;;;;;;;;;;18.61;nan;101136.06;4975986;28;19918;-88
2023/05/19 07:04:33;;;;;;;;;;;;;;;18.67;nan;101129.94;4957880;28;20005;-86
2023/05/19 07:06:59;;;;;;;;;;;;;;;18.89;nan;101130.81;4972958;28;20295;-89
2023/05/19 07:09:26;;;;;;;;;;;;;;;18.87;nan;101130.97;4989676;28;19913;-86
2023/05/19 07:11:51;;;;;;;;;;;;;;;19.04;nan;101126.22;4978615;28;19925;-88
2023/05/19 07:14:16;;;;;;;;;;;;;;;18.66;nan;101115.72;4972678;28;20056;-88
2023/05/19 07:16:42;;;;;;;;;;;;;;;18.83;nan;101119.00;4990014;28;19918;-87
2023/05/19 07:19:07;;;;;;;;;;;;;;;18.34;nan;101111.66;4973463;28;20383;-88
2023/05/19 07:21:32;;;;;;;;;;;;;;;18.00;nan;101106.94;4971189;28;20497;-88
2023/05/19 07:23:57;;;;;;;;;;;;;;;18.67;nan;101105.84;4968711;28;19929;-87
2023/05/19 07:26:23;;;;;;;;;;;;;;;18.93;nan;101102.63;4976702;28;20368;-85
2023/05/19 07:28:48;;;;;;;;;;;;;;;18.84;nan;101109.13;4971314;28;19918;-87
2023/05/19 07:31:13;;;;;;;;;;;;;;;19.24;nan;101104.94;4972608;28;20657;-86
2023/05/19 07:33:39;;;;;;;;;;;;;;;19.03;nan;101103.09;4987880;28;19921;-86
2023/05/19 07:36:04;;;;;;;;;;;;;;;19.25;nan;101101.22;4973996;28;19960;-87
2023/05/19 07:38:33;;;;;;;;;;;;;;;19.85;nan;101098.09;4969620;28;19925;-88
2023/05/19 07:40:59;;;;;;;;;;;;;;;19.51;nan;101097.06;4967704;28;19918;-86
2023/05/19 07:43:24;;;;;;;;;;;;;;;19.01;nan;101093.59;4973685;28;20005;-86
2023/05/19 07:45:49;;;;;;;;;;;;;;;19.80;nan;101092.50;4986305;28;19922;-86
2023/05/19 07:48:17;;;;;;;;;;;;;;;20.19;nan;101091.00;4983868;28;19918;-86
2023/05/19 07:50:42;;;;;;;;;;;;;;;20.83;nan;101097.78;4986211;28;19914;-85
2023/05/19 07:53:07;;;;;;;;;;;;;;;20.57;nan;101089.50;4984020;28;19925;-86
2023/05/19 07:55:32;;;;;;;;;;;;;;;20.67;nan;101097.16;4974447;28;20419;-86
2023/05/19 07:57:58;;;;;;;;;;;;;;;20.63;nan;101082.47;4979071;28;19949;-85
2023/05/19 08:00:23;;;;;;;;;;;;;;;21.14;nan;101081.91;4970973;28;19921;-86
2023/05/19 08:02:48;;;;;;;;;;;;;;;21.14;nan;101084.59;4974409;28;19924;-87
2023/05/19 08:05:13;;;;;;;;;;;;;;;20.69;nan;101078.13;4979020;28;19918;-87
2023/05/19 08:07:39;;;;;;;;;;;;;;;20.41;nan;101086.34;4973390;28;19951;-87
2023/05/19 08:10:04;;;;;;;;;;;;;;;21.02;nan;101082.72;4964638;28;19920;-87
2023/05/19 08:12:29;;;;;;;;;;;;;;;21.88;nan;101076.34;4990215;28;19976;-87
2023/05/19 08:14:54;;;;;;;;;;;;;;;22.37;nan;101077.63;4971252;28;19921;-87
2023/05/19 08:17:20;;;;;;;;;;;;;;;22.73;nan;101074.25;4968381;28;19920;-87
2023/05/19 08:19:45;;;;;;;;;;;;;;;22.69;nan;101076.56;4992660;28;19984;-87
2023/05/19 08:22:11;;;;;;;;;;;;;;;22.37;nan;101083.00;4984681;28;19913;-87
2023/05/19 08:24:37;;;;;;;;;;;;;;;20.82;nan;101080.84;4975416;28;20019;-88
2023/05/19 08:27:03;;;;;;;;;;;;;;;21.64;nan;101076.03;4976212;28;20398;-87
2023/05/19 08:29:28;;;;;;;;;;;;;;;21.87;nan;101069.34;4968430;28;19925;-87
2023/05/19 08:31:54;;;;;;;;;;;;;;;22.73;nan;101076.13;4964869;28;19918;-87
2023/05/19 08:34:19;;;;;;;;;;;;;;;23.14;nan;101074.78;4972089;28;19914;-87
2023/05/19 08:36:44;;;;;;;;;;;;;;;23.32;nan;101075.63;4983158;28;19917;-87
2023/05/19 08:39:10;;;;;;;;;;;;;;;23.57;nan;101068.53;4991648;28;20387;-88
2023/05/19 08:41:35;;;;;;;;;;;;;;;23.27;nan;101067.41;4992504;28;19921;-87
2023/05/19 08:44:00;;;;;;;;;;;;;;;23.68;nan;101063.22;4976059;28;20536;-87
2023/05/19 08:46:27;;;;;;;;;;;;;;;23.42;nan;101061.63;4989175;28;19945;-87
2023/05/19 08:48:53;;;;;;;;;;;;;;;23.93;nan;101068.56;4972811;28;19932;-87
2023/05/19 08:51:35;;;;;;;;;;;;;;;23.76;nan;101059.41;4971548;28;20355;-88
2023/05/19 08:54:07;;;;;;;;;;;;;;;24.49;nan;101063.03;4975383;28;19924;-86
2023/05/19 08:56:33;;;;;;;;;;;;;;;24.29;nan;101052.50;4982676;28;19918;-87
2023/05/19 08:58:59;;;;;;;;;;;;;;;24.70;nan;101054.38;4986652;28;20854;-85
2023/05/19 09:01:25;;;;;;;;;;;;;;;24.17;nan;101047.06;4981899;28;19921;-87
2023/05/19 09:03:50;;;;;;;;;;;;;;;24.51;nan;101044.72;4969795;28;19941;-88
2023/05/19 09:06:15;;;;;;;;;;;;;;;24.58;nan;101043.56;4966688;28;19980;-87
2023/05/19 09:08:41;;;;;;;;;;;;;;;25.26;nan;101040.56;4973785;28;20398;-85
2023/05/19 09:11:08;;;;;;;;;;;;;;;24.79;nan;101044.06;4977029;28;19918;-85
2023/05/19 09:13:33;;;;;;;7.35;1.90;;;;;;;25.13;nan;101045.13;4984781;28;19913;-86
2023/05/19 09:15:59;;;;;;;39.03;4.97;;;;;;;24.95;nan;101040.63;4982728;28;20137;-86
2023/05/19 09:18:25;;;;;;;4.28;1.60;;;;;;;24.61;nan;101036.84;4988713;28;20026;-85
2023/05/19 09:20:58;;;;;;;3.10;1.50;;;;;;;24.11;nan;101042.56;4983072;28;20042;-85
2023/05/19 09:23:28;;;;;;;6.40;1.75;;;;;;;23.61;nan;101037.34;4978468;28;20046;-85
2023/05/19 09:25:54;;;;;;;3.10;1.50;;;;;;;23.82;nan;101038.78;4980588;28;20634;-85
2023/05/19 09:28:30;;;;;;;3.97;1.52;;;;;;;24.32;nan;101035.81;4981009;28;20427;-85
2023/05/19 09:31:01;;;;;;;;;;;;;;;23.62;nan;101034.44;4977635;28;20054;-85
2023/05/19 09:33:27;;;;;;;3.20;1.70;;;;;;;23.23;nan;101028.41;4967296;28;19924;-85
2023/05/19 09:35:55;;;;;;;;;;;;;;;22.62;nan;101024.59;4982409;28;20404;-86
2023/05/19 09:38:20;;;;;;;;;;;;;;;22.66;nan;101027.66;4980089;28;19918;-85
2023/05/19 09:40:48;;;;;;;3.92;1.40;;;;;;;23.14;nan;101027.03;4988405;28;19978;-85
2023/05/19 09:43:16;;;;;;;3.78;1.48;;;;;;;22.82;nan;101013.63;4982063;28;20036;-86
2023/05/19 09:45:42;;;;;;;4.90;1.70;;;;;;;23.46;nan;101018.84;4981119;28;20043;-85
2023/05/19 09:48:07;;;;;;;3.55;1.48;;;;;;;23.31;nan;101011.94;4970094;28;20038;-86
2023/05/19 09:50:34;;;;;;;3.10;1.63;;;;;;;23.26;nan;101010.94;4976159;28;20046;-85
2023/05/19 09:53:00;;;;;;;5.78;1.80;;;;;;;23.57;nan;101019.94;4969000;28;20457;-86
2023/05/19 09:55:28;;;;;;;4.70;1.70;;;;;;;23.64;nan;101018.00;4990480;28;20078;-85
2023/05/19 09:57:56;;;;;;;4.27;1.70;;;;;;;24.51;nan;101020.38;4990863;28;20422;-86
2023/05/19 10:00:22;;;;;;;4.22;1.60;;;;;;;25.34;nan;101010.44;4986623;28;20421;-85
2023/05/19 10:02:49;;;;;;;3.22;1.50;;;;;;;25.11;nan;101009.34;4970363;28;20416;-85
2023/05/19 10:05:18;;;;;;;7.47;2.70;;;;;;;24.41;nan;101010.09;4970366;28;20503;-86
2023/05/19 10:07:51;;;;;;;3.97;1.80;;;;;;;25.57;nan;101004.13;4987397;28;20429;-85
2023/05/19 10:10:20;;;;;;;3.08;1.27;;;;;;;25.72;nan;101000.88;4961116;28;20459;-86
2023/05/19 10:12:47;;;;;;;2.50;1.23;;;;;;;27.32;nan;101009.59;4976676;28;20429;-86
2023/05/19 10:15:15;;;;;;;4.28;1.38;;;;;;;28.48;nan;101001.34;4989666;28;20510;-86
2023/05/19 10:17:42;;;;;;;3.88;1.63;;;;;;;28.08;nan;101003.41;4972796;28;20042;-87
2023/05/19 10:20:15;;;;;;;5.35;1.70;;;;;;;28.13;nan;100997.22;4985385;28;20035;-87
2023/05/19 10:22:43;;;;;;;3.45;1.70;;;;;;;28.24;nan;100993.47;4972673;28;20038;-87
2023/05/19 10:25:10;;;;;;;2.95;1.30;;;;;;;28.30;nan;101002.53;4983520;28;20042;-87
2023/05/19 10:27:39;;;;;;;3.38;1.58;;;;;;;28.34;nan;100993.59;4986405;28;20049;-87
2023/05/19 10:30:10;;;;;;;3.58;1.50;;;;;;;27.30;nan;100990.00;4983530;28;20038;-87
2023/05/19 10:32:38;;;;;;;4.60;1.60;;;;;;;27.68;nan;100990.19;4977529;28;20491;-87
2023/05/19 10:35:28;;;;;;;3.10;1.45;;;;;;;28.05;nan;100982.16;4973836;28;20065;-87
2023/05/19 10:38:08;;;;;;;2.95;1.45;;;;;;;28.36;nan;100986.00;4975382;28;20034;-87
2023/05/19 10:40:52;;;;;;;3.90;1.40;;;;;;;28.74;nan;100977.84;4967716;28;20513;-86
2023/05/19 10:43:30;;;;;;;4.13;1.80;;;;;;;29.74;nan;100979.72;4971490;28;20035;-85
2023/05/19 10:45:56;;;;;;;6.70;2.00;;;;;;;29.80;nan;100978.66;4989836;28;20042;-86
2023/05/19 10:48:22;;;;;;;3.83;1.67;;;;;;;28.26;nan;100974.19;4969199;28;22803;-86
2023/05/19 10:50:57;;;;;;;6.45;2.05;;;;;;;29.40;nan;100985.59;4982617;28;20396;-85
2023/05/19 10:53:30;;;;;;;6.70;1.88;;;;;;;29.32;nan;100981.47;4986341;28;20454;-86
2023/05/19 10:55:57;;;;;;;9.10;1.98;;;;;;;29.50;nan;100988.34;4984775;28;20406;-86
2023/05/19 10:58:45;;;;;;;3.08;1.40;;;;;;;28.84;nan;100991.53;4980065;28;20214;-89
2023/05/19 11:01:23;;;;;;;3.58;1.48;;;;;;;28.02;nan;100985.41;4967494;28;20046;-88
2023/05/19 11:03:52;;;;;;;2.75;1.40;;;;;;;27.98;nan;100986.16;4978723;28;20508;-87
2023/05/19 11:06:17;;;;;;;3.45;1.50;;;;;;;27.57;nan;100972.13;4985563;28;20550;-88
2023/05/19 11:08:43;;;;;;;5.32;1.80;;;;;;;28.08;nan;100978.09;4970237;28;20038;-87
2023/05/19 11:11:13;;;;;;;3.80;1.80;;;;;;;27.86;nan;100976.25;4987513;28;20042;-88
2023/05/19 11:13:41;;;;;;;6.03;1.80;;;;;;;27.70;nan;100966.31;4989325;28;20805;-86
2023/05/19 11:16:08;;;;;;;5.45;2.00;;;;;;;27.24;nan;100957.59;4971072;28;20308;-87
2023/05/19 11:18:34;;;;;;;7.47;1.88;;;;;;;27.00;nan;100951.56;4981583;28;20088;-88
2023/05/19 11:21:01;;;;;;;3.72;1.67;;;;;;;26.60;nan;100958.88;4978154;28;20555;-88
2023/05/19 11:23:26;;;;;;;5.20;1.80;;;;;;;27.13;nan;100959.34;4969943;28;20419;-87
2023/05/19 11:25:55;;;;;;;2.93;1.50;;;;;;;27.58;nan;100966.44;4966465;28;20416;-88
2023/05/19 11:28:26;;;;;;;3.15;1.42;;;;;;;27.02;nan;100947.50;4967341;28;20078;-85
2023/05/19 11:31:01;;;;;;;4.85;1.75;;;;;;;26.60;nan;100956.16;4981585;28;20038;-86
2023/05/19 11:33:26;;;;;;;3.85;1.52;;;;;;;28.20;nan;100954.31;4981246;28;20034;-88
2023/05/19 11:35:54;;;;;;;4.00;1.60;;;;;;;29.31;nan;100949.84;4966313;28;20046;-86
2023/05/19 11:38:22;;;;;;;2.83;1.25;;;;;;;29.65;nan;100943.97;4969097;28;20034;-87
2023/05/19 11:40:52;;;;;;;3.70;1.48;;;;;;;28.14;nan;100948.00;4972995;28;20046;-86
2023/05/19 11:43:20;;;;;;;3.60;1.40;;;;;;;27.40;nan;100945.84;4988224;28;20041;-88
2023/05/19 11:45:45;;;;;;;4.18;1.50;;;;;;;26.83;nan;100944.28;4988557;28;20684;-86
2023/05/19 11:48:11;;;;;;;3.78;1.70;;;;;;;26.90;nan;100946.81;4959521;28;20046;-87
2023/05/19 11:50:39;;;;;;;5.65;1.65;;;;;;;27.72;nan;100943.22;4968497;28;20157;-86
2023/05/19 11:53:05;;;;;;;;;;;;;;;27.36;nan;100941.19;4984759;28;20066;-87
2023/05/19 11:55:30;;;;;;;3.42;1.35;;;;;;;27.02;nan;100935.84;4974435;28;19965;-86
2023/05/19 11:58:01;;;;;;;3.75;1.50;;;;;;;26.77;nan;100937.16;4987471;28;20046;-87
2023/05/19 12:00:26;;;;;;;;;;;;;;;26.28;nan;100924.16;4987089;28;20034;-88
2023/05/19 12:02:52;;;;;;;4.68;1.88;;;;;;;25.78;nan;100934.91;4976864;28;20380;-86
2023/05/19 12:05:20;;;;;;;4.23;1.60;;;;;;;25.05;nan;100926.44;4991050;28;21287;-87
2023/05/19 12:07:50;;;;;;;5.25;1.88;;;;;;;24.05;nan;100921.88;4977548;28;20084;-88
2023/05/19 12:10:18;;;;;;;3.15;1.60;;;;;;;23.98;nan;100934.66;4981392;28;20397;-87
2023/05/19 12:12:44;;;;;;;3.88;1.70;;;;;;;23.57;nan;100934.38;4989515;28;20509;-88
2023/05/19 12:15:10;;;;;;;4.38;1.65;;;;;;;23.50;nan;100934.47;4965805;28;20054;-88
2023/05/19 12:17:35;;;;;;;3.30;1.45;;;;;;;23.55;nan;100939.19;4976774;28;20484;-88
2023/05/19 12:20:01;;;;;;;;;;;;;;;23.84;nan;100937.59;4974264;28;20042;-87
2023/05/19 12:22:27;;;;;;;;;;;;;;;23.76;nan;100937.88;4985217;28;20391;-86
2023/05/19 12:24:52;;;;;;;;;;;;;;;23.67;nan;100940.06;4976728;28;19929;-89
2023/05/19 12:27:19;;;;;;;;;;;;;;;23.87;nan;100936.28;4974726;28;19918;-87
2023/05/19 12:29:49;;;;;;;;;;;;;;;23.66;nan;100935.72;4995415;28;19930;-88
2023/05/19 12:32:14;;;;;;;;;;;;;;;23.52;nan;100937.75;4993115;28;19944;-87
2023/05/19 12:34:40;;;;;;;;;;;;;;;23.08;nan;100937.06;4974979;28;20004;-86
2023/05/19 12:37:05;;;;;;;;;;;;;;;22.81;nan;100933.78;4974242;28;19928;-86